Terminal Aerodrome Forecast
Issued by NWS

Home | Current Version | Previous Version | Graphics & Text | Print | Product List | Glossary On
Versions: 1 2 3 4 5 6 7 8 9 10 11 12 13 14 15 16 17 18 19 20 21 22 23
000
FTUS43 KGRB 241600 AAB
TAFCWA
TAF AMD
KCWA 241634Z 2417/2512 28006KT 6SM BR BKN007 OVC020
      TEMPO 2417/2419 SCT007 OVC020
     FM241900 30007KT P6SM SCT012 BKN020
     FM242200 34005KT 6SM -SN BKN020 OVC035
     FM250200 05007KT 4SM -SN BKN015 OVC030
     FM250700 06011KT P6SM -SN BKN015 OVC030=

USA.gov is the U.S. government's official web portal to all federal, state and local government web resources and services.